sensor_id;sensor_type;location;lat;lon;timestamp;P1;durP1;ratioP1;P2;durP2;ratioP2
76727;SDS011;65652;53.132;18.026;2024-02-23T00:02:05;11.70;;;6.00;;
76727;SDS011;65652;53.132;18.026;2024-02-23T00:04:32;11.90;;;5.80;;
76727;SDS011;65652;53.132;18.026;2024-02-23T00:06:58;10.70;;;5.60;;
76727;SDS011;65652;53.132;18.026;2024-02-23T00:10:33;12.70;;;5.70;;
76727;SDS011;65652;53.132;18.026;2024-02-23T00:13:02;10.30;;;5.50;;
76727;SDS011;65652;53.132;18.026;2024-02-23T00:17:58;9.70;;;4.20;;
76727;SDS011;65652;53.132;18.026;2024-02-23T00:20:25;12.10;;;5.70;;
76727;SDS011;65652;53.132;18.026;2024-02-23T00:22:52;11.20;;;5.20;;
76727;SDS011;65652;53.132;18.026;2024-02-23T00:27:50;10.30;;;5.30;;
76727;SDS011;65652;53.132;18.026;2024-02-23T00:30:17;11.70;;;5.40;;
76727;SDS011;65652;53.132;18.026;2024-02-23T00:32:44;10.20;;;4.80;;
76727;SDS011;65652;53.132;18.026;2024-02-23T00:35:11;10.50;;;4.60;;
76727;SDS011;65652;53.132;18.026;2024-02-23T00:37:38;11.90;;;5.90;;
76727;SDS011;65652;53.132;18.026;2024-02-23T00:40:05;11.80;;;5.80;;
76727;SDS011;65652;53.132;18.026;2024-02-23T00:42:36;10.20;;;5.00;;
76727;SDS011;65652;53.132;18.026;2024-02-23T00:45:04;11.20;;;5.10;;
76727;SDS011;65652;53.132;18.026;2024-02-23T00:47:32;11.80;;;6.00;;
76727;SDS011;65652;53.132;18.026;2024-02-23T00:50:01;11.30;;;5.40;;
76727;SDS011;65652;53.132;18.026;2024-02-23T00:52:29;9.30;;;5.00;;
76727;SDS011;65652;53.132;18.026;2024-02-23T00:54:56;15.10;;;5.50;;
76727;SDS011;65652;53.132;18.026;2024-02-23T00:57:22;10.30;;;4.90;;
76727;SDS011;65652;53.132;18.026;2024-02-23T00:59:56;11.10;;;5.50;;
76727;SDS011;65652;53.132;18.026;2024-02-23T01:02:24;11.50;;;5.80;;
76727;SDS011;65652;53.132;18.026;2024-02-23T01:04:51;11.20;;;5.20;;
76727;SDS011;65652;53.132;18.026;2024-02-23T01:07:23;10.80;;;5.10;;
76727;SDS011;65652;53.132;18.026;2024-02-23T01:09:50;12.70;;;6.00;;
76727;SDS011;65652;53.132;18.026;2024-02-23T01:12:18;10.70;;;5.20;;
76727;SDS011;65652;53.132;18.026;2024-02-23T01:14:45;10.30;;;5.20;;
76727;SDS011;65652;53.132;18.026;2024-02-23T01:17:15;11.00;;;5.80;;
76727;SDS011;65652;53.132;18.026;2024-02-23T01:19:43;11.10;;;5.20;;
76727;SDS011;65652;53.132;18.026;2024-02-23T01:22:11;9.50;;;4.70;;
76727;SDS011;65652;53.132;18.026;2024-02-23T01:24:38;11.60;;;6.00;;
76727;SDS011;65652;53.132;18.026;2024-02-23T01:27:05;11.90;;;6.20;;
76727;SDS011;65652;53.132;18.026;2024-02-23T01:29:32;11.20;;;5.40;;
76727;SDS011;65652;53.132;18.026;2024-02-23T01:31:59;10.90;;;4.80;;
76727;SDS011;65652;53.132;18.026;2024-02-23T01:34:26;8.80;;;4.80;;
76727;SDS011;65652;53.132;18.026;2024-02-23T01:36:53;9.70;;;4.40;;
76727;SDS011;65652;53.132;18.026;2024-02-23T01:39:21;9.20;;;3.80;;
76727;SDS011;65652;53.132;18.026;2024-02-23T01:41:48;8.00;;;4.10;;
76727;SDS011;65652;53.132;18.026;2024-02-23T01:44:15;12.10;;;5.60;;
76727;SDS011;65652;53.132;18.026;2024-02-23T01:46:43;11.40;;;5.30;;
76727;SDS011;65652;53.132;18.026;2024-02-23T01:49:10;11.70;;;4.90;;
76727;SDS011;65652;53.132;18.026;2024-02-23T01:51:38;9.70;;;4.90;;
76727;SDS011;65652;53.132;18.026;2024-02-23T01:54:08;10.90;;;5.20;;
76727;SDS011;65652;53.132;18.026;2024-02-23T01:56:36;11.40;;;6.00;;
76727;SDS011;65652;53.132;18.026;2024-02-23T01:59:03;12.10;;;5.40;;
76727;SDS011;65652;53.132;18.026;2024-02-23T02:01:30;12.40;;;6.10;;
76727;SDS011;65652;53.132;18.026;2024-02-23T02:03:58;12.10;;;5.80;;
76727;SDS011;65652;53.132;18.026;2024-02-23T02:06:25;9.10;;;4.10;;
76727;SDS011;65652;53.132;18.026;2024-02-23T02:08:52;11.50;;;5.50;;
76727;SDS011;65652;53.132;18.026;2024-02-23T02:11:19;10.50;;;5.10;;
76727;SDS011;65652;53.132;18.026;2024-02-23T02:13:46;11.40;;;5.10;;
76727;SDS011;65652;53.132;18.026;2024-02-23T02:16:13;10.20;;;5.30;;
76727;SDS011;65652;53.132;18.026;2024-02-23T02:18:40;11.60;;;5.50;;
76727;SDS011;65652;53.132;18.026;2024-02-23T02:21:07;13.60;;;5.20;;
76727;SDS011;65652;53.132;18.026;2024-02-23T02:23:34;9.60;;;4.30;;
76727;SDS011;65652;53.132;18.026;2024-02-23T02:26:03;9.60;;;4.80;;
76727;SDS011;65652;53.132;18.026;2024-02-23T02:28:31;9.60;;;5.10;;
76727;SDS011;65652;53.132;18.026;2024-02-23T02:33:25;10.20;;;4.40;;
76727;SDS011;65652;53.132;18.026;2024-02-23T02:35:52;12.40;;;5.10;;
76727;SDS011;65652;53.132;18.026;2024-02-23T02:38:19;9.00;;;4.20;;
76727;SDS011;65652;53.132;18.026;2024-02-23T02:40:46;8.90;;;4.00;;
76727;SDS011;65652;53.132;18.026;2024-02-23T02:43:13;8.30;;;4.10;;
76727;SDS011;65652;53.132;18.026;2024-02-23T02:45:40;8.60;;;3.90;;
76727;SDS011;65652;53.132;18.026;2024-02-23T02:48:07;8.40;;;3.90;;
76727;SDS011;65652;53.132;18.026;2024-02-23T02:50:34;9.10;;;4.70;;
76727;SDS011;65652;53.132;18.026;2024-02-23T02:53:02;8.40;;;4.10;;
76727;SDS011;65652;53.132;18.026;2024-02-23T02:55:29;9.00;;;4.50;;
76727;SDS011;65652;53.132;18.026;2024-02-23T02:57:55;8.30;;;3.40;;
76727;SDS011;65652;53.132;18.026;2024-02-23T03:00:22;9.20;;;4.80;;
76727;SDS011;65652;53.132;18.026;2024-02-23T03:02:49;7.70;;;3.90;;
76727;SDS011;65652;53.132;18.026;2024-02-23T03:05:16;8.40;;;3.90;;
76727;SDS011;65652;53.132;18.026;2024-02-23T03:07:43;7.90;;;3.50;;
76727;SDS011;65652;53.132;18.026;2024-02-23T03:10:10;12.00;;;4.20;;
76727;SDS011;65652;53.132;18.026;2024-02-23T03:12:37;7.90;;;3.50;;
76727;SDS011;65652;53.132;18.026;2024-02-23T03:15:04;9.40;;;3.90;;
76727;SDS011;65652;53.132;18.026;2024-02-23T03:17:32;7.60;;;3.50;;
76727;SDS011;65652;53.132;18.026;2024-02-23T03:19:59;5.60;;;2.80;;
76727;SDS011;65652;53.132;18.026;2024-02-23T03:22:26;8.90;;;3.90;;
76727;SDS011;65652;53.132;18.026;2024-02-23T03:24:53;7.20;;;3.10;;
76727;SDS011;65652;53.132;18.026;2024-02-23T03:27:21;7.90;;;3.40;;
76727;SDS011;65652;53.132;18.026;2024-02-23T03:29:54;8.30;;;4.00;;
76727;SDS011;65652;53.132;18.026;2024-02-23T03:32:21;9.30;;;4.10;;
76727;SDS011;65652;53.132;18.026;2024-02-23T03:34:48;6.70;;;3.10;;
76727;SDS011;65652;53.132;18.026;2024-02-23T03:37:15;6.30;;;3.10;;
76727;SDS011;65652;53.132;18.026;2024-02-23T03:39:42;6.50;;;2.60;;
76727;SDS011;65652;53.132;18.026;2024-02-23T03:42:09;7.40;;;3.50;;
76727;SDS011;65652;53.132;18.026;2024-02-23T03:44:36;6.40;;;2.50;;
76727;SDS011;65652;53.132;18.026;2024-02-23T03:47:03;6.90;;;3.40;;
76727;SDS011;65652;53.132;18.026;2024-02-23T03:49:30;7.00;;;3.20;;
76727;SDS011;65652;53.132;18.026;2024-02-23T03:51:57;8.80;;;3.20;;
76727;SDS011;65652;53.132;18.026;2024-02-23T03:54:24;7.10;;;3.30;;
76727;SDS011;65652;53.132;18.026;2024-02-23T03:56:50;6.70;;;3.10;;
76727;SDS011;65652;53.132;18.026;2024-02-23T03:59:17;7.00;;;3.20;;
76727;SDS011;65652;53.132;18.026;2024-02-23T04:01:44;7.70;;;3.80;;
76727;SDS011;65652;53.132;18.026;2024-02-23T04:04:11;7.90;;;3.20;;
76727;SDS011;65652;53.132;18.026;2024-02-23T04:06:38;5.80;;;2.60;;
76727;SDS011;65652;53.132;18.026;2024-02-23T04:09:05;7.00;;;3.30;;
76727;SDS011;65652;53.132;18.026;2024-02-23T04:11:32;6.70;;;3.10;;
76727;SDS011;65652;53.132;18.026;2024-02-23T04:13:59;7.00;;;3.40;;
76727;SDS011;65652;53.132;18.026;2024-02-23T04:16:27;6.60;;;3.10;;
76727;SDS011;65652;53.132;18.026;2024-02-23T04:18:54;6.00;;;2.70;;
76727;SDS011;65652;53.132;18.026;2024-02-23T04:21:21;7.10;;;3.10;;
76727;SDS011;65652;53.132;18.026;2024-02-23T04:23:48;5.40;;;2.10;;
76727;SDS011;65652;53.132;18.026;2024-02-23T04:26:15;7.00;;;2.60;;
76727;SDS011;65652;53.132;18.026;2024-02-23T04:28:42;6.10;;;2.80;;
76727;SDS011;65652;53.132;18.026;2024-02-23T04:31:09;7.40;;;2.80;;
76727;SDS011;65652;53.132;18.026;2024-02-23T04:33:37;6.20;;;2.60;;
76727;SDS011;65652;53.132;18.026;2024-02-23T04:36:04;5.20;;;2.50;;
76727;SDS011;65652;53.132;18.026;2024-02-23T04:38:33;5.80;;;2.80;;
76727;SDS011;65652;53.132;18.026;2024-02-23T04:41:03;5.30;;;2.20;;
76727;SDS011;65652;53.132;18.026;2024-02-23T04:43:31;5.30;;;2.20;;
76727;SDS011;65652;53.132;18.026;2024-02-23T04:45:58;5.10;;;2.10;;
76727;SDS011;65652;53.132;18.026;2024-02-23T04:48:25;5.30;;;2.00;;
76727;SDS011;65652;53.132;18.026;2024-02-23T04:50:52;5.10;;;2.10;;
76727;SDS011;65652;53.132;18.026;2024-02-23T04:53:19;6.20;;;2.10;;
76727;SDS011;65652;53.132;18.026;2024-02-23T04:55:46;4.90;;;1.80;;
76727;SDS011;65652;53.132;18.026;2024-02-23T04:58:13;5.60;;;2.10;;
76727;SDS011;65652;53.132;18.026;2024-02-23T05:00:40;5.10;;;2.00;;
76727;SDS011;65652;53.132;18.026;2024-02-23T05:03:07;3.90;;;1.70;;
76727;SDS011;65652;53.132;18.026;2024-02-23T05:05:35;4.30;;;1.60;;
76727;SDS011;65652;53.132;18.026;2024-02-23T05:08:02;4.80;;;1.70;;
76727;SDS011;65652;53.132;18.026;2024-02-23T05:10:29;5.40;;;1.70;;
76727;SDS011;65652;53.132;18.026;2024-02-23T05:12:56;4.80;;;1.70;;
76727;SDS011;65652;53.132;18.026;2024-02-23T05:15:23;4.60;;;1.40;;
76727;SDS011;65652;53.132;18.026;2024-02-23T05:17:50;5.50;;;1.90;;
76727;SDS011;65652;53.132;18.026;2024-02-23T05:20:17;4.30;;;1.30;;
76727;SDS011;65652;53.132;18.026;2024-02-23T05:22:44;3.90;;;1.50;;
76727;SDS011;65652;53.132;18.026;2024-02-23T05:25:11;4.70;;;1.70;;
76727;SDS011;65652;53.132;18.026;2024-02-23T05:27:40;4.40;;;1.70;;
76727;SDS011;65652;53.132;18.026;2024-02-23T05:30:07;3.80;;;1.20;;
76727;SDS011;65652;53.132;18.026;2024-02-23T05:32:34;4.50;;;1.70;;
76727;SDS011;65652;53.132;18.026;2024-02-23T05:35:01;3.80;;;1.20;;
76727;SDS011;65652;53.132;18.026;2024-02-23T05:37:28;4.50;;;1.40;;
76727;SDS011;65652;53.132;18.026;2024-02-23T05:39:55;5.40;;;1.50;;
76727;SDS011;65652;53.132;18.026;2024-02-23T05:42:22;4.30;;;1.70;;
76727;SDS011;65652;53.132;18.026;2024-02-23T05:44:49;3.70;;;1.30;;
76727;SDS011;65652;53.132;18.026;2024-02-23T05:47:16;3.90;;;1.30;;
76727;SDS011;65652;53.132;18.026;2024-02-23T05:49:42;4.80;;;1.30;;
76727;SDS011;65652;53.132;18.026;2024-02-23T05:52:10;4.00;;;1.30;;
76727;SDS011;65652;53.132;18.026;2024-02-23T05:54:37;4.40;;;1.40;;
76727;SDS011;65652;53.132;18.026;2024-02-23T05:57:04;4.10;;;1.30;;
76727;SDS011;65652;53.132;18.026;2024-02-23T05:59:31;4.00;;;1.40;;
76727;SDS011;65652;53.132;18.026;2024-02-23T06:01:58;3.80;;;1.40;;
76727;SDS011;65652;53.132;18.026;2024-02-23T06:04:25;6.00;;;1.90;;
76727;SDS011;65652;53.132;18.026;2024-02-23T06:09:20;4.30;;;1.20;;
76727;SDS011;65652;53.132;18.026;2024-02-23T06:11:47;4.00;;;1.40;;
76727;SDS011;65652;53.132;18.026;2024-02-23T06:14:16;4.60;;;1.50;;
76727;SDS011;65652;53.132;18.026;2024-02-23T06:16:44;3.70;;;1.10;;
76727;SDS011;65652;53.132;18.026;2024-02-23T06:19:11;4.70;;;1.20;;
76727;SDS011;65652;53.132;18.026;2024-02-23T06:21:38;3.40;;;1.20;;
76727;SDS011;65652;53.132;18.026;2024-02-23T06:24:05;3.50;;;1.10;;
76727;SDS011;65652;53.132;18.026;2024-02-23T06:26:34;4.20;;;1.50;;
76727;SDS011;65652;53.132;18.026;2024-02-23T06:29:01;4.60;;;1.30;;
76727;SDS011;65652;53.132;18.026;2024-02-23T06:31:28;3.60;;;1.30;;
76727;SDS011;65652;53.132;18.026;2024-02-23T06:33:55;4.00;;;1.50;;
76727;SDS011;65652;53.132;18.026;2024-02-23T06:36:22;4.30;;;1.10;;
76727;SDS011;65652;53.132;18.026;2024-02-23T06:38:49;3.70;;;1.20;;
76727;SDS011;65652;53.132;18.026;2024-02-23T06:41:15;3.80;;;1.20;;
76727;SDS011;65652;53.132;18.026;2024-02-23T06:43:42;5.20;;;1.70;;
76727;SDS011;65652;53.132;18.026;2024-02-23T06:46:09;5.10;;;1.10;;
76727;SDS011;65652;53.132;18.026;2024-02-23T06:48:36;3.90;;;1.30;;
76727;SDS011;65652;53.132;18.026;2024-02-23T06:51:07;4.70;;;1.20;;
76727;SDS011;65652;53.132;18.026;2024-02-23T06:53:35;4.20;;;1.30;;
76727;SDS011;65652;53.132;18.026;2024-02-23T06:56:03;3.60;;;1.10;;
76727;SDS011;65652;53.132;18.026;2024-02-23T06:58:30;5.10;;;1.20;;
76727;SDS011;65652;53.132;18.026;2024-02-23T07:00:57;4.30;;;1.20;;
76727;SDS011;65652;53.132;18.026;2024-02-23T07:03:24;3.70;;;1.10;;
76727;SDS011;65652;53.132;18.026;2024-02-23T07:05:52;3.50;;;1.00;;
76727;SDS011;65652;53.132;18.026;2024-02-23T07:08:19;3.10;;;0.80;;
76727;SDS011;65652;53.132;18.026;2024-02-23T07:10:46;3.40;;;0.90;;
76727;SDS011;65652;53.132;18.026;2024-02-23T07:13:12;3.80;;;1.00;;
76727;SDS011;65652;53.132;18.026;2024-02-23T07:15:39;4.70;;;1.00;;
76727;SDS011;65652;53.132;18.026;2024-02-23T07:18:06;3.40;;;1.00;;
76727;SDS011;65652;53.132;18.026;2024-02-23T07:20:35;3.40;;;1.00;;
76727;SDS011;65652;53.132;18.026;2024-02-23T07:23:02;2.10;;;0.50;;
76727;SDS011;65652;53.132;18.026;2024-02-23T07:25:29;3.90;;;0.90;;
76727;SDS011;65652;53.132;18.026;2024-02-23T07:27:56;3.50;;;1.00;;
76727;SDS011;65652;53.132;18.026;2024-02-23T07:30:23;3.50;;;0.90;;
76727;SDS011;65652;53.132;18.026;2024-02-23T07:32:50;3.40;;;0.80;;
76727;SDS011;65652;53.132;18.026;2024-02-23T07:35:17;2.70;;;0.70;;
76727;SDS011;65652;53.132;18.026;2024-02-23T07:37:43;4.80;;;0.70;;
76727;SDS011;65652;53.132;18.026;2024-02-23T07:40:10;2.20;;;0.50;;
76727;SDS011;65652;53.132;18.026;2024-02-23T07:45:06;2.10;;;0.40;;
76727;SDS011;65652;53.132;18.026;2024-02-23T07:47:33;2.30;;;0.60;;
76727;SDS011;65652;53.132;18.026;2024-02-23T07:50:00;2.50;;;0.40;;
76727;SDS011;65652;53.132;18.026;2024-02-23T07:52:30;3.50;;;0.70;;
76727;SDS011;65652;53.132;18.026;2024-02-23T07:54:56;2.40;;;0.60;;
76727;SDS011;65652;53.132;18.026;2024-02-23T07:57:23;3.70;;;0.50;;
76727;SDS011;65652;53.132;18.026;2024-02-23T07:59:51;2.30;;;0.40;;
76727;SDS011;65652;53.132;18.026;2024-02-23T08:02:17;5.50;;;0.70;;
76727;SDS011;65652;53.132;18.026;2024-02-23T08:04:44;2.10;;;0.60;;
76727;SDS011;65652;53.132;18.026;2024-02-23T08:07:14;3.70;;;0.70;;
76727;SDS011;65652;53.132;18.026;2024-02-23T08:09:41;3.90;;;0.80;;
76727;SDS011;65652;53.132;18.026;2024-02-23T08:12:08;2.10;;;0.50;;
76727;SDS011;65652;53.132;18.026;2024-02-23T08:14:35;1.90;;;0.50;;
76727;SDS011;65652;53.132;18.026;2024-02-23T08:17:02;3.40;;;0.60;;
76727;SDS011;65652;53.132;18.026;2024-02-23T08:22:00;2.50;;;0.40;;
76727;SDS011;65652;53.132;18.026;2024-02-23T08:24:26;3.80;;;0.90;;
76727;SDS011;65652;53.132;18.026;2024-02-23T08:26:54;4.80;;;0.90;;
76727;SDS011;65652;53.132;18.026;2024-02-23T08:29:20;3.50;;;0.80;;
76727;SDS011;65652;53.132;18.026;2024-02-23T08:31:48;4.70;;;0.80;;
76727;SDS011;65652;53.132;18.026;2024-02-23T08:34:15;3.90;;;0.80;;
76727;SDS011;65652;53.132;18.026;2024-02-23T08:36:44;4.70;;;0.80;;
76727;SDS011;65652;53.132;18.026;2024-02-23T08:39:11;3.90;;;0.90;;
76727;SDS011;65652;53.132;18.026;2024-02-23T08:41:38;5.20;;;0.80;;
76727;SDS011;65652;53.132;18.026;2024-02-23T08:44:05;4.50;;;0.90;;
76727;SDS011;65652;53.132;18.026;2024-02-23T08:46:32;4.40;;;1.00;;
76727;SDS011;65652;53.132;18.026;2024-02-23T08:48:59;5.10;;;1.20;;
76727;SDS011;65652;53.132;18.026;2024-02-23T08:51:26;3.50;;;0.80;;
76727;SDS011;65652;53.132;18.026;2024-02-23T08:53:53;4.20;;;1.40;;
76727;SDS011;65652;53.132;18.026;2024-02-23T08:56:20;8.30;;;1.40;;
76727;SDS011;65652;53.132;18.026;2024-02-23T08:58:47;4.30;;;1.10;;
76727;SDS011;65652;53.132;18.026;2024-02-23T09:01:14;4.80;;;0.80;;
76727;SDS011;65652;53.132;18.026;2024-02-23T09:03:40;5.10;;;1.20;;
76727;SDS011;65652;53.132;18.026;2024-02-23T09:06:07;4.30;;;1.30;;
76727;SDS011;65652;53.132;18.026;2024-02-23T09:08:35;3.60;;;1.10;;
76727;SDS011;65652;53.132;18.026;2024-02-23T09:11:01;7.90;;;1.80;;
76727;SDS011;65652;53.132;18.026;2024-02-23T09:13:30;6.70;;;1.70;;
76727;SDS011;65652;53.132;18.026;2024-02-23T09:15:57;5.30;;;1.10;;
76727;SDS011;65652;53.132;18.026;2024-02-23T09:18:24;4.30;;;1.00;;
76727;SDS011;65652;53.132;18.026;2024-02-23T09:20:51;7.10;;;1.40;;
76727;SDS011;65652;53.132;18.026;2024-02-23T09:23:18;5.20;;;1.20;;
76727;SDS011;65652;53.132;18.026;2024-02-23T09:25:45;6.20;;;1.00;;
76727;SDS011;65652;53.132;18.026;2024-02-23T09:28:14;4.50;;;1.20;;
76727;SDS011;65652;53.132;18.026;2024-02-23T09:30:40;3.50;;;0.90;;
76727;SDS011;65652;53.132;18.026;2024-02-23T09:33:07;3.40;;;1.00;;
76727;SDS011;65652;53.132;18.026;2024-02-23T09:35:35;5.30;;;0.90;;
76727;SDS011;65652;53.132;18.026;2024-02-23T09:38:02;6.30;;;1.70;;
76727;SDS011;65652;53.132;18.026;2024-02-23T09:40:29;5.60;;;1.00;;
76727;SDS011;65652;53.132;18.026;2024-02-23T09:42:57;4.90;;;1.10;;
76727;SDS011;65652;53.132;18.026;2024-02-23T09:45:25;3.90;;;0.90;;
76727;SDS011;65652;53.132;18.026;2024-02-23T09:47:56;3.90;;;0.70;;
76727;SDS011;65652;53.132;18.026;2024-02-23T09:50:24;4.10;;;1.30;;
76727;SDS011;65652;53.132;18.026;2024-02-23T09:52:51;3.70;;;0.70;;
76727;SDS011;65652;53.132;18.026;2024-02-23T09:55:18;3.00;;;0.70;;
76727;SDS011;65652;53.132;18.026;2024-02-23T09:57:45;5.50;;;1.20;;
76727;SDS011;65652;53.132;18.026;2024-02-23T10:00:17;4.70;;;0.70;;
76727;SDS011;65652;53.132;18.026;2024-02-23T10:02:44;4.00;;;0.70;;
76727;SDS011;65652;53.132;18.026;2024-02-23T10:05:12;4.20;;;1.00;;
76727;SDS011;65652;53.132;18.026;2024-02-23T10:07:40;2.50;;;0.40;;
76727;SDS011;65652;53.132;18.026;2024-02-23T10:10:07;4.40;;;0.70;;
76727;SDS011;65652;53.132;18.026;2024-02-23T10:12:37;3.10;;;0.60;;
76727;SDS011;65652;53.132;18.026;2024-02-23T10:15:07;3.50;;;0.80;;
76727;SDS011;65652;53.132;18.026;2024-02-23T10:17:34;3.00;;;0.60;;
76727;SDS011;65652;53.132;18.026;2024-02-23T10:20:01;3.40;;;0.70;;
76727;SDS011;65652;53.132;18.026;2024-02-23T10:22:32;3.60;;;0.80;;
76727;SDS011;65652;53.132;18.026;2024-02-23T10:24:59;4.20;;;0.90;;
76727;SDS011;65652;53.132;18.026;2024-02-23T10:27:26;3.20;;;0.90;;
76727;SDS011;65652;53.132;18.026;2024-02-23T10:29:54;5.40;;;1.00;;
76727;SDS011;65652;53.132;18.026;2024-02-23T10:32:27;4.10;;;0.90;;
76727;SDS011;65652;53.132;18.026;2024-02-23T10:34:58;3.20;;;0.50;;
76727;SDS011;65652;53.132;18.026;2024-02-23T10:37:27;2.70;;;0.90;;
76727;SDS011;65652;53.132;18.026;2024-02-23T10:39:57;2.40;;;0.50;;
76727;SDS011;65652;53.132;18.026;2024-02-23T10:42:30;3.80;;;0.70;;
76727;SDS011;65652;53.132;18.026;2024-02-23T10:45:05;2.80;;;0.70;;
76727;SDS011;65652;53.132;18.026;2024-02-23T10:47:35;5.20;;;0.80;;
76727;SDS011;65652;53.132;18.026;2024-02-23T10:50:06;4.80;;;0.70;;
76727;SDS011;65652;53.132;18.026;2024-02-23T10:52:41;4.10;;;0.70;;
76727;SDS011;65652;53.132;18.026;2024-02-23T10:55:09;3.30;;;0.60;;
76727;SDS011;65652;53.132;18.026;2024-02-23T10:57:36;2.90;;;0.60;;
76727;SDS011;65652;53.132;18.026;2024-02-23T11:00:07;2.70;;;0.50;;
76727;SDS011;65652;53.132;18.026;2024-02-23T11:02:48;1.80;;;0.50;;
76727;SDS011;65652;53.132;18.026;2024-02-23T11:05:18;2.20;;;0.60;;
76727;SDS011;65652;53.132;18.026;2024-02-23T11:07:46;3.00;;;0.70;;
76727;SDS011;65652;53.132;18.026;2024-02-23T11:10:17;4.50;;;0.90;;
76727;SDS011;65652;53.132;18.026;2024-02-23T11:12:44;3.40;;;0.70;;
76727;SDS011;65652;53.132;18.026;2024-02-23T11:15:25;5.50;;;0.90;;
76727;SDS011;65652;53.132;18.026;2024-02-23T11:17:56;2.30;;;0.50;;
76727;SDS011;65652;53.132;18.026;2024-02-23T11:20:23;2.90;;;0.80;;
76727;SDS011;65652;53.132;18.026;2024-02-23T11:22:52;3.50;;;0.70;;
76727;SDS011;65652;53.132;18.026;2024-02-23T11:25:21;2.90;;;0.50;;
76727;SDS011;65652;53.132;18.026;2024-02-23T11:27:53;3.20;;;0.60;;
76727;SDS011;65652;53.132;18.026;2024-02-23T11:30:20;3.00;;;0.50;;
76727;SDS011;65652;53.132;18.026;2024-02-23T11:32:47;3.10;;;0.70;;
76727;SDS011;65652;53.132;18.026;2024-02-23T11:35:16;2.80;;;0.40;;
76727;SDS011;65652;53.132;18.026;2024-02-23T11:37:51;2.60;;;0.60;;
76727;SDS011;65652;53.132;18.026;2024-02-23T11:40:30;2.00;;;0.40;;
76727;SDS011;65652;53.132;18.026;2024-02-23T11:42:58;1.90;;;0.30;;
76727;SDS011;65652;53.132;18.026;2024-02-23T11:45:28;2.20;;;0.50;;
76727;SDS011;65652;53.132;18.026;2024-02-23T11:47:57;2.90;;;0.60;;
76727;SDS011;65652;53.132;18.026;2024-02-23T11:50:24;2.60;;;0.50;;
76727;SDS011;65652;53.132;18.026;2024-02-23T11:52:51;2.00;;;0.40;;
76727;SDS011;65652;53.132;18.026;2024-02-23T11:55:21;2.00;;;0.40;;
76727;SDS011;65652;53.132;18.026;2024-02-23T11:57:49;2.70;;;0.60;;
76727;SDS011;65652;53.132;18.026;2024-02-23T12:00:16;3.00;;;0.60;;
76727;SDS011;65652;53.132;18.026;2024-02-23T12:02:43;2.70;;;0.50;;
76727;SDS011;65652;53.132;18.026;2024-02-23T12:05:18;3.20;;;0.70;;
76727;SDS011;65652;53.132;18.026;2024-02-23T12:07:45;3.50;;;0.70;;
76727;SDS011;65652;53.132;18.026;2024-02-23T12:10:12;3.90;;;0.70;;
76727;SDS011;65652;53.132;18.026;2024-02-23T12:12:40;2.60;;;0.60;;
76727;SDS011;65652;53.132;18.026;2024-02-23T12:15:07;2.90;;;0.70;;
76727;SDS011;65652;53.132;18.026;2024-02-23T12:17:37;2.30;;;0.60;;
76727;SDS011;65652;53.132;18.026;2024-02-23T12:20:13;2.80;;;0.70;;
76727;SDS011;65652;53.132;18.026;2024-02-23T12:22:40;2.90;;;0.70;;
76727;SDS011;65652;53.132;18.026;2024-02-23T12:25:08;2.80;;;0.60;;
76727;SDS011;65652;53.132;18.026;2024-02-23T12:27:35;2.30;;;0.40;;
76727;SDS011;65652;53.132;18.026;2024-02-23T12:30:02;3.60;;;0.80;;
76727;SDS011;65652;53.132;18.026;2024-02-23T12:32:29;3.20;;;0.60;;
76727;SDS011;65652;53.132;18.026;2024-02-23T12:34:56;3.90;;;0.60;;
76727;SDS011;65652;53.132;18.026;2024-02-23T12:37:23;3.40;;;0.70;;
76727;SDS011;65652;53.132;18.026;2024-02-23T12:39:50;2.70;;;0.60;;
76727;SDS011;65652;53.132;18.026;2024-02-23T12:42:18;3.10;;;0.70;;
76727;SDS011;65652;53.132;18.026;2024-02-23T12:44:45;2.00;;;0.50;;
76727;SDS011;65652;53.132;18.026;2024-02-23T12:47:12;3.30;;;0.80;;
76727;SDS011;65652;53.132;18.026;2024-02-23T12:49:39;3.50;;;0.70;;
76727;SDS011;65652;53.132;18.026;2024-02-23T12:52:06;3.70;;;0.80;;
76727;SDS011;65652;53.132;18.026;2024-02-23T12:54:33;3.20;;;0.70;;
76727;SDS011;65652;53.132;18.026;2024-02-23T12:57:02;3.40;;;0.60;;
76727;SDS011;65652;53.132;18.026;2024-02-23T12:59:29;4.20;;;0.70;;
76727;SDS011;65652;53.132;18.026;2024-02-23T13:01:56;2.20;;;0.60;;
76727;SDS011;65652;53.132;18.026;2024-02-23T13:06:51;3.30;;;0.50;;
76727;SDS011;65652;53.132;18.026;2024-02-23T13:09:18;3.20;;;0.80;;
76727;SDS011;65652;53.132;18.026;2024-02-23T13:11:44;3.20;;;0.60;;
76727;SDS011;65652;53.132;18.026;2024-02-23T13:14:13;3.30;;;0.80;;
76727;SDS011;65652;53.132;18.026;2024-02-23T13:19:08;3.70;;;0.70;;
76727;SDS011;65652;53.132;18.026;2024-02-23T13:21:35;2.60;;;0.70;;
76727;SDS011;65652;53.132;18.026;2024-02-23T13:24:02;3.90;;;0.80;;
76727;SDS011;65652;53.132;18.026;2024-02-23T13:26:30;3.50;;;0.80;;
76727;SDS011;65652;53.132;18.026;2024-02-23T13:28:56;3.30;;;0.70;;
76727;SDS011;65652;53.132;18.026;2024-02-23T13:31:23;3.40;;;0.60;;
76727;SDS011;65652;53.132;18.026;2024-02-23T13:33:50;4.50;;;0.70;;
76727;SDS011;65652;53.132;18.026;2024-02-23T13:36:17;3.30;;;0.70;;
76727;SDS011;65652;53.132;18.026;2024-02-23T13:38:44;4.00;;;0.90;;
76727;SDS011;65652;53.132;18.026;2024-02-23T13:41:11;3.80;;;0.90;;
76727;SDS011;65652;53.132;18.026;2024-02-23T14:02:24;5.20;;;1.30;;
76727;SDS011;65652;53.132;18.026;2024-02-23T14:04:52;3.90;;;0.70;;
76727;SDS011;65652;53.132;18.026;2024-02-23T14:07:20;3.80;;;1.10;;
76727;SDS011;65652;53.132;18.026;2024-02-23T14:09:47;5.30;;;0.90;;
76727;SDS011;65652;53.132;18.026;2024-02-23T14:12:13;3.70;;;0.70;;
76727;SDS011;65652;53.132;18.026;2024-02-23T14:14:40;3.10;;;0.80;;
76727;SDS011;65652;53.132;18.026;2024-02-23T14:17:06;3.90;;;1.20;;
76727;SDS011;65652;53.132;18.026;2024-02-23T14:19:32;3.50;;;0.90;;
76727;SDS011;65652;53.132;18.026;2024-02-23T14:21:58;6.50;;;1.20;;
76727;SDS011;65652;53.132;18.026;2024-02-23T14:24:25;4.20;;;0.90;;
76727;SDS011;65652;53.132;18.026;2024-02-23T14:26:51;6.60;;;0.90;;
76727;SDS011;65652;53.132;18.026;2024-02-23T14:29:17;3.00;;;0.60;;
76727;SDS011;65652;53.132;18.026;2024-02-23T14:31:43;2.60;;;0.60;;
76727;SDS011;65652;53.132;18.026;2024-02-23T14:34:10;3.70;;;0.70;;
76727;SDS011;65652;53.132;18.026;2024-02-23T14:36:36;3.30;;;0.70;;
76727;SDS011;65652;53.132;18.026;2024-02-23T14:39:02;3.40;;;0.70;;
76727;SDS011;65652;53.132;18.026;2024-02-23T14:41:30;4.40;;;0.90;;
76727;SDS011;65652;53.132;18.026;2024-02-23T14:43:56;4.30;;;0.80;;
76727;SDS011;65652;53.132;18.026;2024-02-23T14:46:22;3.80;;;0.80;;
76727;SDS011;65652;53.132;18.026;2024-02-23T14:48:49;2.30;;;0.50;;
76727;SDS011;65652;53.132;18.026;2024-02-23T14:51:15;3.10;;;0.80;;
76727;SDS011;65652;53.132;18.026;2024-02-23T14:53:41;4.80;;;0.90;;
76727;SDS011;65652;53.132;18.026;2024-02-23T14:56:08;3.90;;;0.90;;
76727;SDS011;65652;53.132;18.026;2024-02-23T14:58:34;4.50;;;0.90;;
76727;SDS011;65652;53.132;18.026;2024-02-23T15:01:00;3.30;;;0.60;;
76727;SDS011;65652;53.132;18.026;2024-02-23T15:03:27;2.90;;;0.80;;
76727;SDS011;65652;53.132;18.026;2024-02-23T15:05:53;3.30;;;0.80;;
76727;SDS011;65652;53.132;18.026;2024-02-23T15:08:19;3.00;;;0.70;;
76727;SDS011;65652;53.132;18.026;2024-02-23T15:10:45;2.70;;;0.70;;
76727;SDS011;65652;53.132;18.026;2024-02-23T15:13:11;3.40;;;0.70;;
76727;SDS011;65652;53.132;18.026;2024-02-23T15:15:37;3.50;;;0.60;;